Time;durP1;ratioP1;P1;durP2;ratioP2;P2;SDS_P1;SDS_P2;PMS_P1;PMS_P2;Temp;Humidity;BMP_temperature;BMP_pressure;BME280_temperature;BME280_humidity;BME280_pressure;Samples;Min_cycle;Max_cycle;Signal;HPM_P1;HPM_P2
2022/10/23 00:01:50;;;;;;;;;9.60;9.60;;;;;19.33;66.37;99961.53;5033679;28;8996;-79
2022/10/23 00:04:24;;;;;;;;;7.80;7.80;;;;;19.50;65.74;99958.41;5052032;28;8869;-81
2022/10/23 00:06:52;;;;;;;;;9.40;9.40;;;;;19.53;65.61;99966.25;5050588;28;8859;-80
2022/10/23 00:09:23;;;;;;;;;8.60;8.20;;;;;19.61;65.42;99966.00;5034537;28;8845;-81
2022/10/23 00:11:53;;;;;;;;;10.20;9.60;;;;;19.67;64.97;99968.47;5052218;28;8849;-79
2022/10/23 00:14:24;;;;;;;;;11.60;10.60;;;;;19.38;65.93;99987.88;5050668;28;8857;-80
2022/10/23 00:16:53;;;;;;;;;8.60;8.20;;;;;19.25;65.89;99997.94;5051963;28;8930;-80
2022/10/23 00:19:21;;;;;;;;;16.20;13.60;;;;;18.12;71.03;100016.69;5050541;28;8949;-81
2022/10/23 00:21:50;;;;;;;;;11.40;11.40;;;;;17.51;74.27;100015.44;5051986;28;8852;-80
2022/10/23 00:24:19;;;;;;;;;11.80;11.60;;;;;17.72;73.82;100012.31;5050391;28;8857;-81
2022/10/23 00:26:49;;;;;;;;;15.00;14.00;;;;;17.87;72.75;100016.41;5052217;28;8860;-80
2022/10/23 00:29:18;;;;;;;;;10.00;10.00;;;;;18.13;71.47;100012.31;5050252;28;8945;-80
2022/10/23 00:31:47;;;;;;;;;10.80;10.00;;;;;18.17;71.17;100016.59;5033579;28;8829;-82
2022/10/23 00:34:18;;;;;;;;;8.80;7.40;;;;;18.33;70.06;100001.25;5033976;28;8857;-80
2022/10/23 00:36:47;;;;;;;;;10.00;9.00;;;;;18.55;69.02;99996.28;5051088;28;8955;-80
2022/10/23 00:39:15;;;;;;;;;12.00;11.60;;;;;18.73;68.10;100009.91;5050887;28;8857;-81
2022/10/23 00:41:44;;;;;;;;;10.60;9.40;;;;;18.59;68.88;100018.22;5049834;28;8876;-80
2022/10/23 00:44:45;;;;;;;;;9.00;8.40;;;;;18.94;67.12;100009.38;5052343;28;8837;-80
2022/10/23 00:47:15;;;;;;;;;9.40;9.40;;;;;18.62;68.41;100018.13;5052120;28;8843;-80
2022/10/23 00:49:44;;;;;;;;;11.40;11.40;;;;;18.73;67.69;100015.19;5051749;28;9058;-80
2022/10/23 00:52:14;;;;;;;;;8.40;7.60;;;;;18.45;68.88;100010.63;5049722;28;8975;-82
2022/10/23 00:54:44;;;;;;;;;8.60;8.60;;;;;18.47;68.43;100011.47;5049006;28;8944;-82
2022/10/23 00:57:15;;;;;;;;;6.40;5.80;;;;;18.22;69.74;100012.09;5040943;28;8867;-80
2022/10/23 00:59:44;;;;;;;;;7.60;6.80;;;;;18.33;69.23;100008.31;5030043;28;8874;-81
2022/10/23 01:02:13;;;;;;;;;5.60;4.60;;;;;18.42;68.75;100005.44;5030459;28;8867;-82
2022/10/23 01:04:43;;;;;;;;;9.00;7.00;;;;;18.54;67.88;100009.53;5031515;28;8902;-80
2022/10/23 01:07:17;;;;;;;;;8.80;8.40;;;;;18.74;67.12;100006.38;5051496;28;9015;-80
2022/10/23 01:09:53;;;;;;;;;9.00;8.00;;;;;18.59;67.77;100010.28;5033577;28;8857;-81
2022/10/23 01:12:34;;;;;;;;;9.40;8.20;;;;;18.29;69.20;100005.72;5049792;28;8863;-81
2022/10/23 01:15:09;;;;;;;;;11.60;9.20;;;;;18.33;68.59;100005.66;5033039;28;8914;-82
2022/10/23 01:17:42;;;;;;;;;9.60;9.60;;;;;18.36;68.40;100000.31;5050344;28;8861;-81
2022/10/23 01:20:28;;;;;;;;;7.20;7.00;;;;;18.62;67.40;100008.44;4984445;28;9569;-80
2022/10/23 01:23:14;;;;;;;;;9.80;8.60;;;;;18.74;66.91;99999.31;4981269;28;8850;-80
2022/10/23 01:26:02;;;;;;;;;7.00;7.00;;;;;18.67;67.20;100013.59;5031538;28;9035;-80
2022/10/23 01:28:39;;;;;;;;;7.60;6.40;;;;;18.61;67.16;100017.25;5047565;28;8939;-80
2022/10/23 01:31:14;;;;;;;;;7.60;7.60;;;;;18.41;67.93;100011.59;5031122;28;8954;-81
2022/10/23 01:33:46;;;;;;;;;9.60;9.00;;;;;18.41;68.02;100014.25;5031200;28;8874;-80
2022/10/23 01:36:28;;;;;;;;;8.40;8.20;;;;;18.39;68.16;100016.06;5047507;28;8920;-82
2022/10/23 01:39:04;;;;;;;;;8.20;7.60;;;;;18.53;67.44;100018.38;5030303;28;8854;-81
2022/10/23 01:41:39;;;;;;;;;7.60;7.60;;;;;18.64;66.77;100017.19;5048095;28;8872;-82
2022/10/23 01:44:16;;;;;;;;;7.60;7.60;;;;;18.77;66.31;100016.84;5031242;28;8857;-81
2022/10/23 01:46:47;;;;;;;;;7.40;6.60;;;;;18.79;65.60;100015.91;5014441;28;8912;-83
2022/10/23 01:49:19;;;;;;;;;8.00;8.00;;;;;18.72;66.07;100018.75;5031144;28;8979;-81
2022/10/23 01:51:56;;;;;;;;;10.60;8.20;;;;;18.66;66.59;100023.28;5025306;28;8837;-80
2022/10/23 01:54:29;;;;;;;;;7.60;7.60;;;;;18.17;68.88;100016.59;5047760;28;8959;-82
2022/10/23 01:56:59;;;;;;;;;8.00;8.00;;;;;18.34;67.84;100023.25;5048429;28;8841;-79
2022/10/23 01:59:36;;;;;;;;;7.60;6.80;;;;;18.49;67.24;100026.38;5048473;28;9630;-81
2022/10/23 02:02:07;;;;;;;;;7.80;7.80;;;;;18.56;66.37;100021.78;5031720;28;8859;-83
2022/10/23 02:04:40;;;;;;;;;8.00;8.00;;;;;18.66;66.22;100023.28;5049247;28;8853;-81
2022/10/23 02:07:09;;;;;;;;;8.00;7.40;;;;;18.53;66.61;100026.31;5048265;28;9638;-80
2022/10/23 02:09:38;;;;;;;;;11.00;9.00;;;;;18.12;68.71;100023.75;5049288;28;8857;-80
2022/10/23 02:12:09;;;;;;;;;7.00;6.80;;;;;18.34;67.65;100025.91;5048558;28;8884;-81
2022/10/23 02:14:48;;;;;;;;;8.00;8.00;;;;;18.45;67.12;100011.50;5049064;28;8877;-80
2022/10/23 02:17:26;;;;;;;;;7.00;7.00;;;;;18.29;68.10;100010.16;5040547;28;8843;-81
2022/10/23 02:20:02;;;;;;;;;8.20;7.40;;;;;18.19;68.57;100011.28;5035268;28;8952;-83
2022/10/23 02:22:37;;;;;;;;;7.00;7.00;;;;;17.75;70.39;100024.59;5041105;28;8855;-82
2022/10/23 02:25:11;;;;;;;;;5.20;5.20;;;;;17.90;69.54;100018.09;5034707;28;8859;-82
2022/10/23 02:27:45;;;;;;;;;6.00;6.00;;;;;17.89;69.58;100024.31;5042383;28;8830;-81
2022/10/23 02:30:19;;;;;;;;;7.40;7.40;;;;;17.95;69.54;100021.50;5051030;28;8853;-81
2022/10/23 02:32:57;;;;;;;;;7.00;7.00;;;;;17.82;70.14;100025.31;5033026;28;8942;-83
2022/10/23 02:35:26;;;;;;;;;7.00;7.00;;;;;17.40;71.79;100018.28;5049024;28;8845;-83
2022/10/23 02:38:28;;;;;;;;;6.60;6.60;;;;;17.89;69.91;100022.53;5049525;28;8849;-82
2022/10/23 02:41:01;;;;;;;;;7.80;7.80;;;;;17.85;69.49;100025.28;4983106;28;8849;-82
2022/10/23 02:43:37;;;;;;;;;7.40;7.00;;;;;18.05;68.68;100023.06;5047646;28;8859;-83
2022/10/23 02:46:17;;;;;;;;;9.20;7.80;;;;;18.20;67.95;100010.38;5048309;28;8841;-83
2022/10/23 02:48:53;;;;;;;;;6.80;6.80;;;;;18.33;67.04;100013.59;5000854;28;9010;-82
2022/10/23 02:51:32;;;;;;;;;6.60;6.00;;;;;18.37;66.94;100013.47;5049270;28;8880;-80
2022/10/23 02:54:08;;;;;;;;;8.40;7.80;;;;;18.50;66.43;100008.75;5048180;28;8869;-81
2022/10/23 02:56:44;;;;;;;;;8.00;8.00;;;;;18.53;65.71;100013.94;5045321;28;8898;-81
2022/10/23 02:59:23;;;;;;;;;9.20;6.80;;;;;18.58;65.61;100017.34;5028858;28;8859;-82
2022/10/23 03:02:02;;;;;;;;;6.20;6.20;;;;;18.60;65.37;100014.66;5011952;28;8845;-82
2022/10/23 03:04:32;;;;;;;;;6.60;6.60;;;;;18.56;65.46;100024.41;5049073;28;8872;-82
2022/10/23 03:07:01;;;;;;;;;7.40;7.40;;;;;18.58;65.32;100025.28;5049561;28;8854;-83
2022/10/23 03:09:31;;;;;;;;;7.20;7.20;;;;;18.60;65.15;100030.50;5031768;28;8845;-81
2022/10/23 03:11:59;;;;;;;;;10.00;9.00;;;;;18.61;65.05;100035.75;5048776;28;8860;-82
2022/10/23 03:14:33;;;;;;;;;7.00;7.00;;;;;18.62;64.88;100032.22;5047832;28;8869;-83
2022/10/23 03:17:05;;;;;;;;;9.00;7.00;;;;;18.63;64.28;100031.28;5031674;28;9579;-81
2022/10/23 03:19:33;;;;;;;;;6.80;5.80;;;;;18.61;64.72;100034.88;5046454;28;9610;-81
2022/10/23 03:22:05;;;;;;;;;7.20;7.00;;;;;18.63;64.31;100028.66;5048243;28;8861;-81
2022/10/23 03:24:34;;;;;;;;;8.40;7.20;;;;;18.59;64.77;100041.97;5047623;28;8872;-81
2022/10/23 03:27:02;;;;;;;;;9.80;8.40;;;;;18.54;64.78;100041.22;4998777;28;8837;-80
2022/10/23 03:29:33;;;;;;;;;8.60;8.60;;;;;18.60;64.27;100036.66;5051396;28;8833;-79
2022/10/23 03:32:01;;;;;;;;;7.00;4.60;;;;;18.55;64.30;100043.84;5018956;28;8968;-79
2022/10/23 03:34:31;;;;;;;;;7.00;7.00;;;;;18.56;64.49;100034.97;5052225;28;8868;-79
2022/10/23 03:37:02;;;;;;;;;9.40;9.40;;;;;18.53;64.45;100040.38;5054102;28;8857;-79
2022/10/23 03:39:32;;;;;;;;;7.40;7.40;;;;;18.50;64.50;100038.66;5051836;28;8848;-79
2022/10/23 03:42:01;;;;;;;;;7.60;7.00;;;;;18.50;64.60;100043.94;5049192;28;8869;-81
2022/10/23 03:44:31;;;;;;;;;10.00;8.80;;;;;18.52;64.34;100051.81;5047098;28;8959;-81
2022/10/23 03:46:59;;;;;;;;;7.00;7.00;;;;;18.53;64.46;100052.72;5036115;28;8950;-80
2022/10/23 03:49:29;;;;;;;;;9.20;8.40;;;;;18.54;64.14;100051.78;5051591;28;9678;-83
2022/10/23 03:52:05;;;;;;;;;11.00;9.60;;;;;18.43;64.61;100059.97;5052164;28;8853;-81
2022/10/23 03:54:34;;;;;;;;;11.20;10.20;;;;;18.41;64.78;100057.41;5053276;28;8871;-83
2022/10/23 03:57:03;;;;;;;;;9.60;9.60;;;;;18.41;64.71;100067.06;5053752;28;8853;-82
2022/10/23 03:59:34;;;;;;;;;11.20;10.60;;;;;18.38;64.98;100060.09;5070561;28;8835;-83
2022/10/23 04:02:05;;;;;;;;;11.80;11.00;;;;;18.39;64.81;100069.78;5070882;28;8991;-83
2022/10/23 04:04:35;;;;;;;;;7.80;6.00;;;;;18.39;64.62;100071.53;5071507;28;9057;-82
2022/10/23 04:07:05;;;;;;;;;9.40;9.40;;;;;18.27;65.22;100080.59;5052290;28;8864;-84
2022/10/23 04:09:34;;;;;;;;;10.20;9.80;;;;;18.28;65.00;100079.72;5036916;28;8889;-82
2022/10/23 04:12:04;;;;;;;;;11.60;11.00;;;;;18.28;64.84;100075.28;5037109;28;8890;-80
2022/10/23 04:14:33;;;;;;;;;9.00;7.80;;;;;18.29;64.68;100079.66;5020165;28;8840;-81
2022/10/23 04:17:02;;;;;;;;;12.00;9.80;;;;;18.34;64.44;100078.72;5069904;28;9558;-83
2022/10/23 04:19:31;;;;;;;;;9.80;9.80;;;;;18.36;64.43;100082.19;5053096;28;8875;-81
2022/10/23 04:22:02;;;;;;;;;14.80;12.80;;;;;18.36;64.25;100068.97;5039461;28;8872;-79
2022/10/23 04:24:32;;;;;;;;;15.00;12.40;;;;;18.35;64.20;100065.44;5072219;28;8848;-79
2022/10/23 04:27:02;;;;;;;;;9.60;9.00;;;;;18.33;64.11;100063.75;5089051;28;8931;-81
2022/10/23 04:29:31;;;;;;;;;9.80;8.00;;;;;18.32;64.36;100070.81;5072452;28;8853;-79
2022/10/23 04:32:00;;;;;;;;;8.80;8.80;;;;;18.31;64.39;100072.56;5019165;28;8843;-80
2022/10/23 04:34:29;;;;;;;;;9.00;7.80;;;;;18.30;64.33;100080.53;5052771;28;8842;-81
2022/10/23 04:36:58;;;;;;;;;10.20;10.00;;;;;18.33;64.00;100076.94;5052181;28;8889;-80
2022/10/23 04:39:27;;;;;;;;;9.40;9.40;;;;;18.33;63.81;100080.44;5050729;28;8842;-80
2022/10/23 04:41:57;;;;;;;;;9.40;9.40;;;;;18.29;64.18;100074.38;5018819;28;8948;-80
2022/10/23 04:44:29;;;;;;;;;10.00;8.80;;;;;18.29;63.93;100077.00;5052727;28;8980;-79
2022/10/23 04:46:57;;;;;;;;;9.80;9.20;;;;;18.29;63.47;100074.38;5035781;28;8975;-80
2022/10/23 04:49:26;;;;;;;;;9.80;9.00;;;;;18.26;64.00;100085.03;5068986;28;8892;-79
2022/10/23 04:52:14;;;;;;;;;9.60;9.60;;;;;18.26;64.13;100079.75;5027375;28;8858;-79
2022/10/23 04:55:09;;;;;;;;;8.80;8.20;;;;;18.23;64.25;100084.22;5059757;28;8851;-79
2022/10/23 04:57:46;;;;;;;;;9.00;9.00;;;;;18.21;64.12;100086.91;5027347;28;8995;-80
2022/10/23 05:00:17;;;;;;;;;10.20;9.00;;;;;18.17;64.59;100081.75;5031475;28;8874;-80
2022/10/23 05:02:52;;;;;;;;;10.20;9.80;;;;;18.16;64.45;100080.84;5040702;28;8893;-80
2022/10/23 05:05:21;;;;;;;;;8.80;7.80;;;;;18.19;64.39;100080.78;5034406;28;8904;-81
2022/10/23 05:08:11;;;;;;;;;11.00;10.40;;;;;18.17;64.40;100082.59;5009468;28;8944;-80
2022/10/23 05:11:04;;;;;;;;;21.60;20.20;;;;;18.20;64.32;100084.28;4992150;28;8847;-80
2022/10/23 05:13:40;;;;;;;;;49.25;39.25;;;;;18.17;64.60;100079.09;4952722;28;8860;-81
2022/10/23 05:16:10;;;;;;;;;15.00;14.80;;;;;18.14;64.64;100080.03;4954063;28;9682;-81
2022/10/23 05:18:45;;;;;;;;;40.50;34.00;;;;;18.18;64.40;100084.31;4969691;28;8905;-80
2022/10/23 05:21:19;;;;;;;;;17.80;17.40;;;;;18.18;64.61;100091.38;4953983;28;8872;-81
2022/10/23 05:23:50;;;;;;;;;17.60;16.60;;;;;18.20;64.59;100085.16;4970369;28;8905;-80
2022/10/23 05:26:21;;;;;;;;;16.00;14.00;;;;;18.28;64.77;100087.63;4970006;28;8871;-82
2022/10/23 05:28:54;;;;;;;;;13.60;11.00;;;;;18.33;64.67;100082.22;4954279;28;9039;-84
2022/10/23 05:31:24;;;;;;;;;11.00;10.80;;;;;18.31;64.51;100083.13;4937737;28;8857;-82
2022/10/23 05:34:01;;;;;;;;;93.50;85.25;;;;;18.34;64.76;100087.47;4909224;28;8895;-80
2022/10/23 05:36:31;;;;;;;;;18.60;17.20;;;;;18.35;64.67;100083.94;4953906;28;10262;-83
2022/10/23 05:39:02;;;;;;;;;20.60;18.60;;;;;18.38;64.54;100088.28;4969573;28;8873;-82
2022/10/23 05:41:32;;;;;;;;;9.40;9.40;;;;;18.42;64.81;100092.59;4954956;28;8879;-83
2022/10/23 05:44:04;;;;;;;;;11.40;11.40;;;;;18.48;64.77;100105.63;4980643;28;8862;-82
2022/10/23 05:46:53;;;;;;;;;11.80;10.40;;;;;18.55;64.65;100104.59;5009209;28;8861;-82
2022/10/23 05:49:40;;;;;;;;;12.60;11.80;;;;;18.65;64.68;100105.22;5008414;28;8888;-81
2022/10/23 05:52:27;;;;;;;;;47.00;39.00;;;;;18.77;64.50;100093.47;4990117;28;8918;-81
2022/10/23 05:55:14;;;;;;;;;23.00;21.80;;;;;18.82;64.21;100095.13;4965861;28;8852;-81
2022/10/23 05:58:16;;;;;;;;;14.40;12.20;;;;;18.84;63.97;100097.72;5011125;28;8857;-81
2022/10/23 06:01:07;;;;;;;;;21.60;20.20;;;;;18.94;64.15;100107.19;4982519;28;8892;-84
2022/10/23 06:03:53;;;;;;;;;22.80;20.60;;;;;18.97;63.78;100114.16;4970678;28;8865;-83
2022/10/23 06:06:29;;;;;;;;;13.00;11.20;;;;;19.04;63.57;100119.22;4972493;28;8887;-83
2022/10/23 06:08:57;;;;;;;;;15.80;14.80;;;;;19.01;63.38;100114.00;4972093;28;8902;-85
2022/10/23 06:11:26;;;;;;;;;17.60;17.00;;;;;19.02;63.37;100120.19;4955999;28;8949;-83
2022/10/23 06:14:04;;;;;;;;;11.40;11.00;;;;;19.09;63.31;100116.44;4994466;28;8872;-83
2022/10/23 06:16:34;;;;;;;;;11.00;10.80;;;;;19.15;63.47;100123.34;4987505;28;8860;-83
2022/10/23 06:19:03;;;;;;;;;13.20;13.00;;;;;19.21;63.39;100128.50;4983500;28;8864;-81
2022/10/23 06:21:36;;;;;;;;;53.50;44.25;;;;;19.34;63.21;100132.56;4986558;28;8871;-83
2022/10/23 06:24:07;;;;;;;;;46.00;37.75;;;;;19.37;63.21;100134.22;4970036;28;8884;-83
2022/10/23 06:26:49;;;;;;;;;21.00;19.60;;;;;19.46;63.02;100134.84;4987140;28;9563;-83
2022/10/23 06:29:22;;;;;;;;;18.60;16.20;;;;;19.56;62.76;100126.66;4971185;28;8926;-83
2022/10/23 06:31:53;;;;;;;;;12.80;12.40;;;;;19.38;62.90;100128.06;4972065;28;9599;-84
2022/10/23 06:34:22;;;;;;;;;14.40;12.40;;;;;19.46;62.78;100113.69;4978771;28;9039;-84
2022/10/23 06:36:51;;;;;;;;;15.00;15.00;;;;;19.63;62.37;100122.94;4994957;28;8859;-84
2022/10/23 06:39:46;;;;;;;;;15.80;14.80;;;;;19.59;62.10;100134.50;4988512;28;8846;-85
2022/10/23 06:42:22;;;;;;;;;15.20;13.80;;;;;19.61;62.49;100128.25;4988941;28;8881;-85
2022/10/23 06:45:18;;;;;;;;;20.00;16.20;;;;;19.85;62.13;100134.66;4988727;28;8881;-87
2022/10/23 06:48:25;;;;;;;;;16.80;16.80;;;;;19.86;61.92;100131.09;4934202;28;9727;-84
2022/10/23 06:51:21;;;;;;;;;30.20;26.40;;;;;19.47;63.06;100141.88;4933003;29;8864;-85
2022/10/23 06:54:10;;;;;;;;;17.60;17.00;;;;;19.65;62.40;100144.91;4920296;29;8996;-86
2022/10/23 06:57:07;;;;;;;;;17.20;15.00;;;;;19.86;61.83;100149.63;4844845;29;8878;-87
2022/10/23 06:59:44;;;;;;;;;13.80;12.80;;;;;19.97;61.65;100141.38;4824840;29;8894;-89
2022/10/23 07:02:16;;;;;;;;;41.50;35.00;;;;;20.02;61.76;100150.06;4827985;29;8923;-86
2022/10/23 07:04:47;;;;;;;;;18.80;17.00;;;;;20.09;61.98;100156.00;4840781;29;8878;-87
2022/10/23 07:07:22;;;;;;;;;22.00;19.20;;;;;20.01;62.11;100156.25;4898652;29;8913;-87
2022/10/23 07:09:54;;;;;;;;;16.40;16.20;;;;;20.19;61.54;100153.97;4869394;29;8995;-85
2022/10/23 07:12:28;;;;;;;;;25.00;22.00;;;;;20.37;61.29;100152.53;4886500;29;8997;-83
2022/10/23 07:15:26;;;;;;;;;23.60;21.40;;;;;20.20;61.55;100158.34;4898360;29;8977;-83
2022/10/23 07:17:56;;;;;;;;;19.40;19.20;;;;;20.01;62.09;100160.69;4869647;29;8998;-84
2022/10/23 07:20:28;;;;;;;;;39.50;33.75;;;;;20.14;62.38;100158.53;4900566;28;8867;-86
2022/10/23 07:22:57;;;;;;;;;20.40;18.80;;;;;20.24;62.23;100154.69;4946490;28;8878;-87
2022/10/23 07:25:37;;;;;;;;;24.40;23.60;;;;;20.42;61.69;100158.56;4906201;28;8898;-84
2022/10/23 07:28:10;;;;;;;;;22.20;22.20;;;;;20.65;61.25;100144.59;4971497;28;8870;-86
2022/10/23 07:31:02;;;;;;;;;22.00;21.00;;;;;20.89;60.61;100147.34;4956808;28;8887;-84
2022/10/23 07:34:00;;;;;;;;;35.40;31.40;;;;;21.00;60.09;100153.16;4976239;28;8889;-84
2022/10/23 07:36:33;;;;;;;;;20.80;20.40;;;;;21.15;59.76;100146.47;5001109;28;8874;-88
2022/10/23 07:39:06;;;;;;;;;19.60;18.80;;;;;21.19;59.70;100156.94;5011155;28;8988;-87
2022/10/23 07:41:44;;;;;;;;;20.60;20.00;;;;;21.04;59.88;100162.78;5025155;28;8880;-86
2022/10/23 07:44:14;;;;;;;;;24.40;21.40;;;;;21.00;60.20;100174.38;5010513;28;8886;-87
2022/10/23 07:47:08;;;;;;;;;19.00;18.80;;;;;20.92;60.69;100179.94;4938167;28;8887;-87
2022/10/23 07:49:42;;;;;;;;;50.75;40.75;;;;;21.08;60.36;100175.00;4960943;28;8955;-85
2022/10/23 07:52:16;;;;;;;;;27.80;24.60;;;;;21.19;60.49;100174.63;4949598;28;8931;-87
2022/10/23 07:55:30;;;;;;;;;27.40;24.60;;;;;21.61;59.60;100166.97;4908142;29;8974;-87
2022/10/23 07:58:21;;;;;;;;;19.40;19.40;;;;;21.73;59.31;100170.13;4883012;29;8907;-86
2022/10/23 08:01:18;;;;;;;;;20.00;18.80;;;;;21.68;59.18;100169.41;4861857;29;8939;-84
2022/10/23 08:03:48;;;;;;;;;20.00;19.80;;;;;21.64;59.41;100175.75;4829949;29;8879;-87
2022/10/23 08:06:19;;;;;;;;;37.25;34.25;;;;;21.84;58.56;100170.59;4859332;29;9100;-90
2022/10/23 08:08:59;;;;;;;;;20.60;20.20;;;;;21.74;58.77;100180.69;4826887;29;8887;-88
2022/10/23 08:11:56;;;;;;;;;22.20;21.00;;;;;21.64;58.43;100181.91;4839841;29;8892;-89
2022/10/23 08:14:28;;;;;;;;;52.00;43.50;;;;;21.82;58.39;100172.44;4825363;29;9001;-87
2022/10/23 08:16:57;;;;;;;;;25.00;23.80;;;;;21.85;58.11;100179.41;4828453;29;9004;-89
2022/10/23 08:20:02;;;;;;;;;21.20;20.20;;;;;22.02;58.04;100181.44;4842005;29;8924;-88
2022/10/23 08:22:39;;;;;;;;;21.60;21.60;;;;;22.04;57.73;100180.47;4782963;29;8910;-88
2022/10/23 08:25:10;;;;;;;;;21.60;19.40;;;;;22.27;57.29;100178.75;4850667;29;8873;-87
2022/10/23 08:27:43;;;;;;;;;21.20;20.80;;;;;22.26;56.84;100183.19;4935617;29;8980;-91
2022/10/23 08:30:16;;;;;;;;;25.40;24.40;;;;;22.42;56.46;100182.59;4959122;28;8909;-87
2022/10/23 08:32:55;;;;;;;;;17.40;16.80;;;;;22.55;56.00;100175.88;4964205;28;8851;-89
2022/10/23 09:29:21;;;;;;;;;20.60;19.40;;;;;19.28;67.57;100188.22;5143962;27;13422;-82
2022/10/23 09:31:52;;;;;;;;;17.00;16.00;;;;;19.77;66.56;100186.06;5120219;27;8964;-84
2022/10/23 09:34:23;;;;;;;;;20.80;19.80;;;;;20.24;65.36;100178.53;5093832;28;8879;-84
2022/10/23 09:36:54;;;;;;;;;14.80;14.40;;;;;20.48;63.27;100184.00;5088265;28;8863;-86
2022/10/23 09:39:30;;;;;;;;;16.40;16.40;;;;;20.84;61.68;100174.03;5117295;27;8837;-84
2022/10/23 09:42:01;;;;;;;;;16.80;16.60;;;;;21.22;60.62;100171.88;5110628;27;8864;-85
2022/10/23 09:44:33;;;;;;;;;16.80;15.00;;;;;21.34;58.98;100171.47;5122856;28;8855;-83
2022/10/23 09:47:10;;;;;;;;;16.80;15.20;;;;;21.76;58.02;100175.31;5106535;28;8889;-84
2022/10/23 09:49:46;;;;;;;;;13.40;12.60;;;;;21.97;56.47;100168.34;5088832;28;8955;-84
2022/10/23 09:52:29;;;;;;;;;15.00;14.20;;;;;22.35;55.32;100158.06;5074826;28;8963;-84
2022/10/23 09:55:01;;;;;;;;;10.20;9.80;;;;;22.51;53.96;100155.66;5106773;28;8838;-84
2022/10/23 09:57:35;;;;;;;;;12.00;11.00;;;;;22.39;52.99;100159.66;5090133;28;8859;-84
2022/10/23 10:00:16;;;;;;;;;8.40;8.20;;;;;22.72;53.10;100160.13;5107654;27;8894;-84
2022/10/23 10:02:56;;;;;;;;;11.20;11.20;;;;;23.02;52.67;100150.91;5068184;27;8836;-85
2022/10/23 10:05:44;;;;;;;;;13.00;11.60;;;;;23.09;51.00;100147.09;5117058;27;9017;-85
2022/10/23 15:33:05;;;;;;;;;26.75;26.00;;;;;20.31;56.68;99890.50;5142817;27;13464;-81
2022/10/23 15:35:34;;;;;;;;;29.50;28.50;;;;;20.65;55.41;99884.91;5039178;28;8873;-79
2022/10/23 15:38:02;;;;;;;;;26.75;26.75;;;;;20.98;54.13;99885.44;5010042;28;8874;-79
2022/10/23 15:40:31;;;;;;;;;26.75;25.50;;;;;21.30;52.91;99883.31;5024455;28;8894;-81
2022/10/23 15:43:01;;;;;;;;;28.00;26.40;;;;;21.59;52.08;99878.69;5008026;28;8855;-81
2022/10/23 15:45:30;;;;;;;;;30.00;29.25;;;;;21.87;51.15;99882.81;4974241;28;9464;-80
2022/10/23 15:47:59;;;;;;;;;25.80;24.20;;;;;22.06;50.59;99877.59;5020234;28;8858;-81
2022/10/23 15:50:29;;;;;;;;;30.60;27.20;;;;;22.26;49.97;99875.00;5017674;28;8863;-79
2022/10/23 15:52:58;;;;;;;;;25.60;24.80;;;;;22.38;49.21;99876.25;5037953;28;8987;-81
2022/10/23 15:55:27;;;;;;;;;26.00;24.80;;;;;22.58;48.45;99870.91;5006376;28;8847;-79
2022/10/23 15:58:00;;;;;;;;;31.25;27.50;;;;;22.68;48.23;99873.16;5024305;28;8885;-79
2022/10/23 16:00:29;;;;;;;;;31.50;29.50;;;;;22.77;48.05;99876.25;5024499;28;8962;-79
2022/10/23 16:02:58;;;;;;;;;33.50;30.50;;;;;22.88;47.68;99885.56;4981995;28;8955;-80
2022/10/23 16:05:27;;;;;;;;;35.25;32.00;;;;;22.99;47.42;99888.56;4979530;28;8842;-79
2022/10/23 16:07:57;;;;;;;;;36.50;34.00;;;;;23.08;47.21;99874.00;4981360;28;9727;-79
2022/10/23 16:10:25;;;;;;;;;45.25;36.75;;;;;23.12;46.96;99881.78;4965885;28;9659;-82
2022/10/23 16:12:54;;;;;;;;;33.40;29.20;;;;;23.12;46.85;99881.78;4965127;28;8919;-85
2022/10/23 16:15:22;;;;;;;;;30.20;28.00;;;;;23.09;46.64;99875.75;4939948;28;8881;-83
2022/10/23 16:17:51;;;;;;;;;27.40;25.00;;;;;23.04;46.76;99875.94;4961025;28;9650;-85
2022/10/23 16:20:20;;;;;;;;;30.20;28.20;;;;;23.07;46.45;99882.94;4952405;28;8862;-82
2022/10/23 16:22:48;;;;;;;;;20.60;20.20;;;;;23.00;46.40;99876.13;5001779;28;8892;-83
2022/10/23 16:25:19;;;;;;;;;39.00;34.75;;;;;22.98;46.25;99876.19;5001399;28;8849;-81
2022/10/23 16:27:47;;;;;;;;;22.00;20.80;;;;;22.93;46.38;99878.19;5001110;28;8861;-81
2022/10/23 16:30:16;;;;;;;;;24.80;23.20;;;;;22.94;46.22;99877.28;5002275;28;8866;-80
2022/10/23 16:32:45;;;;;;;;;26.40;24.20;;;;;22.97;46.28;99880.66;5002936;28;8943;-80
2022/10/23 16:35:13;;;;;;;;;21.60;21.40;;;;;22.98;46.04;99882.38;5001415;28;8938;-82
2022/10/23 16:37:56;;;;;;;;;14.60;14.00;;;;;23.02;46.09;99879.59;5006450;28;8894;-79
2022/10/23 16:40:26;;;;;;;;;22.60;20.00;;;;;22.98;45.94;99884.19;4985223;28;8946;-79
2022/10/23 16:43:13;;;;;;;;;15.20;15.00;;;;;22.98;46.04;99886.84;4995153;28;8858;-79
2022/10/23 16:45:47;;;;;;;;;18.60;17.20;;;;;22.92;46.12;99882.66;4973182;28;8866;-82
2022/10/23 16:48:15;;;;;;;;;22.00;21.80;;;;;22.98;45.95;99879.72;4956316;28;8988;-81
2022/10/23 16:50:44;;;;;;;;;23.60;22.00;;;;;23.07;45.66;99882.94;4977820;28;8907;-79
2022/10/23 16:53:13;;;;;;;;;22.80;21.60;;;;;23.07;45.83;99882.94;5009629;28;8855;-79
2022/10/23 16:55:43;;;;;;;;;21.80;19.80;;;;;23.11;45.53;99884.50;5007337;28;8881;-80
2022/10/23 16:58:11;;;;;;;;;24.00;21.00;;;;;23.16;45.38;99882.50;5007960;28;8867;-81
2022/10/23 17:00:40;;;;;;;;;19.60;19.40;;;;;23.22;45.14;99886.66;5007724;28;8961;-82
2022/10/23 17:03:09;;;;;;;;;27.40;25.40;;;;;23.22;45.07;99886.66;4991586;28;9641;-80
2022/10/23 17:05:38;;;;;;;;;22.20;21.80;;;;;23.26;44.98;99885.59;5008415;28;8871;-80
2022/10/23 17:08:06;;;;;;;;;20.20;20.20;;;;;23.27;44.81;99888.19;5008418;28;8879;-80
2022/10/23 17:10:35;;;;;;;;;19.60;19.60;;;;;23.29;44.57;99891.63;5004766;28;8868;-81
2022/10/23 17:13:05;;;;;;;;;20.20;20.00;;;;;23.25;44.67;99887.41;4989128;28;8966;-80
2022/10/23 17:15:34;;;;;;;;;19.60;18.80;;;;;23.20;44.72;99886.75;4988891;28;8949;-81
2022/10/23 17:18:02;;;;;;;;;36.75;32.75;;;;;23.14;45.07;99879.91;5038192;28;8862;-80
2022/10/23 17:20:31;;;;;;;;;35.00;32.75;;;;;23.00;45.40;99887.63;4988656;28;8862;-81
2022/10/23 17:23:00;;;;;;;;;30.25;28.00;;;;;23.03;45.30;99886.66;4988441;28;9014;-71
2022/10/23 17:25:29;;;;;;;;;26.60;23.00;;;;;23.13;45.26;99882.63;4975370;28;8864;-83
2022/10/23 17:27:57;;;;;;;;;22.40;20.60;;;;;23.06;45.35;99882.06;4983650;28;8900;-84
2022/10/23 17:30:27;;;;;;;;;26.00;25.00;;;;;23.11;45.24;99877.38;4995400;28;9599;-81
2022/10/23 17:32:56;;;;;;;;;26.00;26.00;;;;;23.12;45.38;99878.25;4975110;28;9655;-82
2022/10/23 17:35:29;;;;;;;;;27.20;26.00;;;;;23.07;45.65;99869.63;5090233;28;8878;-82
2022/10/23 17:37:58;;;;;;;;;31.75;30.25;;;;;23.03;45.90;99876.00;4989385;28;8983;-79
2022/10/23 17:40:29;;;;;;;;;31.50;29.50;;;;;23.01;45.93;99877.88;4955940;28;8885;-81
2022/10/23 17:42:58;;;;;;;;;24.25;22.50;;;;;23.01;46.01;99872.56;4991472;28;8882;-86
2022/10/23 17:45:29;;;;;;;;;29.00;29.00;;;;;22.96;46.06;99875.41;4998683;28;8963;-84
2022/10/23 17:47:58;;;;;;;;;36.50;33.00;;;;;22.97;45.99;99882.47;5001267;28;8879;-85
2022/10/23 17:50:29;;;;;;;;;34.25;31.50;;;;;22.93;46.24;99879.09;5008429;28;8855;-83
2022/10/23 17:52:59;;;;;;;;;33.75;32.75;;;;;22.88;46.37;99877.56;5006338;28;8899;-85
2022/10/23 17:55:49;;;;;;;;;30.00;28.00;;;;;22.78;46.46;99874.47;4944077;28;8850;-83
2022/10/23 17:58:18;;;;;;;;;32.00;30.50;;;;;22.68;46.81;99875.81;4967748;28;8855;-83
2022/10/23 18:00:51;;;;;;;;;30.00;28.25;;;;;22.68;46.82;99871.34;4940809;28;8876;-86
2022/10/23 18:03:22;;;;;;;;;29.50;28.25;;;;;22.63;47.06;99861.84;4936371;28;9069;-85
2022/10/23 18:05:51;;;;;;;;;27.00;25.50;;;;;22.59;47.15;99863.81;4920097;28;8868;-81
2022/10/23 18:08:19;;;;;;;;;31.75;28.25;;;;;22.55;47.39;99872.84;4957987;28;8845;-85
2022/10/23 18:10:49;;;;;;;;;26.75;26.75;;;;;22.47;47.40;99874.97;4987456;28;8977;-85
2022/10/23 18:13:18;;;;;;;;;27.75;27.00;;;;;22.36;47.75;99864.81;4952284;28;8865;-85
2022/10/23 18:15:47;;;;;;;;;29.25;27.75;;;;;22.31;48.01;99867.69;5054572;28;8916;-86